sensor_id;sensor_type;location;lat;lon;timestamp;temperature;humidity
43963;DHT22;29622;45.534;9.242;2023-05-07T00:04:33;23.50;43.90
43963;DHT22;29622;45.534;9.242;2023-05-07T00:09:37;23.40;43.90
43963;DHT22;29622;45.534;9.242;2023-05-07T00:14:37;23.40;44.00
43963;DHT22;29622;45.534;9.242;2023-05-07T00:19:38;23.40;44.20
43963;DHT22;29622;45.534;9.242;2023-05-07T00:24:38;23.40;44.30
43963;DHT22;29622;45.534;9.242;2023-05-07T00:29:39;23.40;44.30
43963;DHT22;29622;45.534;9.242;2023-05-07T00:34:40;23.40;44.40
43963;DHT22;29622;45.534;9.242;2023-05-07T00:39:40;23.40;44.40
43963;DHT22;29622;45.534;9.242;2023-05-07T00:44:41;23.40;44.40
43963;DHT22;29622;45.534;9.242;2023-05-07T00:49:43;23.40;44.40
43963;DHT22;29622;45.534;9.242;2023-05-07T00:54:44;23.40;44.50
43963;DHT22;29622;45.534;9.242;2023-05-07T00:59:45;23.30;44.20
43963;DHT22;29622;45.534;9.242;2023-05-07T01:04:46;23.30;44.20
43963;DHT22;29622;45.534;9.242;2023-05-07T01:09:47;23.30;44.20
43963;DHT22;29622;45.534;9.242;2023-05-07T01:14:47;23.30;44.00
43963;DHT22;29622;45.534;9.242;2023-05-07T01:19:50;23.40;43.80
43963;DHT22;29622;45.534;9.242;2023-05-07T01:24:52;23.40;43.70
43963;DHT22;29622;45.534;9.242;2023-05-07T01:29:54;23.30;43.60
43963;DHT22;29622;45.534;9.242;2023-05-07T01:34:57;23.40;43.60
43963;DHT22;29622;45.534;9.242;2023-05-07T01:39:59;23.30;43.50
43963;DHT22;29622;45.534;9.242;2023-05-07T01:45:01;23.20;43.50
43963;DHT22;29622;45.534;9.242;2023-05-07T01:50:06;23.10;43.50
43963;DHT22;29622;45.534;9.242;2023-05-07T01:55:08;23.10;43.60
43963;DHT22;29622;45.534;9.242;2023-05-07T02:00:10;23.00;43.60
43963;DHT22;29622;45.534;9.242;2023-05-07T02:05:16;23.00;43.50
43963;DHT22;29622;45.534;9.242;2023-05-07T02:10:19;23.00;43.60
43963;DHT22;29622;45.534;9.242;2023-05-07T02:15:19;22.80;43.40
43963;DHT22;29622;45.534;9.242;2023-05-07T02:20:20;22.50;43.60
43963;DHT22;29622;45.534;9.242;2023-05-07T02:25:21;22.40;43.90
43963;DHT22;29622;45.534;9.242;2023-05-07T02:30:22;22.30;44.10
43963;DHT22;29622;45.534;9.242;2023-05-07T02:35:25;22.20;44.30
43963;DHT22;29622;45.534;9.242;2023-05-07T02:40:27;22.20;44.50
43963;DHT22;29622;45.534;9.242;2023-05-07T02:45:27;22.30;44.60
43963;DHT22;29622;45.534;9.242;2023-05-07T02:50:29;22.30;44.70
43963;DHT22;29622;45.534;9.242;2023-05-07T02:55:30;22.10;45.00
43963;DHT22;29622;45.534;9.242;2023-05-07T03:00:31;22.00;45.40
43963;DHT22;29622;45.534;9.242;2023-05-07T03:05:43;21.90;45.60
43963;DHT22;29622;45.534;9.242;2023-05-07T03:10:44;21.90;46.00
43963;DHT22;29622;45.534;9.242;2023-05-07T03:15:45;21.80;46.10
43963;DHT22;29622;45.534;9.242;2023-05-07T03:20:47;21.80;46.40
43963;DHT22;29622;45.534;9.242;2023-05-07T03:25:49;21.80;46.40
43963;DHT22;29622;45.534;9.242;2023-05-07T03:30:50;21.70;46.50
43963;DHT22;29622;45.534;9.242;2023-05-07T03:35:51;21.60;46.60
43963;DHT22;29622;45.534;9.242;2023-05-07T03:40:56;21.50;46.90
43963;DHT22;29622;45.534;9.242;2023-05-07T03:45:57;21.50;47.20
43963;DHT22;29622;45.534;9.242;2023-05-07T03:51:01;21.50;47.30
43963;DHT22;29622;45.534;9.242;2023-05-07T03:56:06;21.50;47.30
43963;DHT22;29622;45.534;9.242;2023-05-07T04:01:10;21.50;47.30
43963;DHT22;29622;45.534;9.242;2023-05-07T04:06:12;21.30;47.40
43963;DHT22;29622;45.534;9.242;2023-05-07T04:11:15;21.20;47.70
43963;DHT22;29622;45.534;9.242;2023-05-07T04:16:16;21.00;48.20
43963;DHT22;29622;45.534;9.242;2023-05-07T04:21:18;20.80;48.70
43963;DHT22;29622;45.534;9.242;2023-05-07T04:26:19;20.70;49.20
43963;DHT22;29622;45.534;9.242;2023-05-07T04:31:21;20.60;49.60
43963;DHT22;29622;45.534;9.242;2023-05-07T04:36:26;20.60;49.90
43963;DHT22;29622;45.534;9.242;2023-05-07T04:41:33;20.50;50.00
43963;DHT22;29622;45.534;9.242;2023-05-07T04:46:33;20.40;50.30
43963;DHT22;29622;45.534;9.242;2023-05-07T04:51:34;20.40;51.00
43963;DHT22;29622;45.534;9.242;2023-05-07T04:56:35;20.40;50.60
43963;DHT22;29622;45.534;9.242;2023-05-07T05:01:36;20.30;50.80
43963;DHT22;29622;45.534;9.242;2023-05-07T05:06:37;20.20;50.90
43963;DHT22;29622;45.534;9.242;2023-05-07T05:11:39;20.10;51.20
43963;DHT22;29622;45.534;9.242;2023-05-07T05:16:40;20.00;51.50
43963;DHT22;29622;45.534;9.242;2023-05-07T05:21:41;20.00;51.70
43963;DHT22;29622;45.534;9.242;2023-05-07T05:26:43;20.10;51.90
43963;DHT22;29622;45.534;9.242;2023-05-07T05:31:44;20.30;51.70
43963;DHT22;29622;45.534;9.242;2023-05-07T05:36:45;20.30;51.60
43963;DHT22;29622;45.534;9.242;2023-05-07T05:41:47;20.30;51.60
43963;DHT22;29622;45.534;9.242;2023-05-07T05:46:48;20.20;51.70
43963;DHT22;29622;45.534;9.242;2023-05-07T05:51:50;20.20;52.30
43963;DHT22;29622;45.534;9.242;2023-05-07T05:56:51;20.10;51.70
43963;DHT22;29622;45.534;9.242;2023-05-07T06:01:52;20.10;51.90
43963;DHT22;29622;45.534;9.242;2023-05-07T06:06:53;20.20;52.10
43963;DHT22;29622;45.534;9.242;2023-05-07T06:11:55;20.30;52.10
43963;DHT22;29622;45.534;9.242;2023-05-07T06:16:56;20.40;52.10
43963;DHT22;29622;45.534;9.242;2023-05-07T06:21:57;20.60;52.00
43963;DHT22;29622;45.534;9.242;2023-05-07T06:26:59;20.70;52.10
43963;DHT22;29622;45.534;9.242;2023-05-07T06:32:11;21.00;52.00
43963;DHT22;29622;45.534;9.242;2023-05-07T06:37:14;21.00;51.70
43963;DHT22;29622;45.534;9.242;2023-05-07T06:42:26;20.90;51.60
43963;DHT22;29622;45.534;9.242;2023-05-07T06:47:32;21.00;51.80
43963;DHT22;29622;45.534;9.242;2023-05-07T06:52:33;21.00;51.60
43963;DHT22;29622;45.534;9.242;2023-05-07T06:57:34;20.90;51.60
43963;DHT22;29622;45.534;9.242;2023-05-07T07:02:34;20.80;51.90
43963;DHT22;29622;45.534;9.242;2023-05-07T07:07:35;20.80;52.00
43963;DHT22;29622;45.534;9.242;2023-05-07T07:12:36;20.70;52.00
43963;DHT22;29622;45.534;9.242;2023-05-07T07:17:37;20.70;52.10
43963;DHT22;29622;45.534;9.242;2023-05-07T07:22:38;20.60;52.10
43963;DHT22;29622;45.534;9.242;2023-05-07T07:27:38;20.60;52.30
43963;DHT22;29622;45.534;9.242;2023-05-07T07:32:41;20.60;52.40
43963;DHT22;29622;45.534;9.242;2023-05-07T07:37:41;20.70;52.50
43963;DHT22;29622;45.534;9.242;2023-05-07T07:42:42;20.80;52.50
43963;DHT22;29622;45.534;9.242;2023-05-07T07:47:43;20.90;52.30
43963;DHT22;29622;45.534;9.242;2023-05-07T07:52:44;20.90;52.10
43963;DHT22;29622;45.534;9.242;2023-05-07T07:57:46;20.90;52.10
43963;DHT22;29622;45.534;9.242;2023-05-07T08:02:47;20.90;52.10
43963;DHT22;29622;45.534;9.242;2023-05-07T08:07:55;20.90;52.00
43963;DHT22;29622;45.534;9.242;2023-05-07T08:13:01;21.00;52.00
43963;DHT22;29622;45.534;9.242;2023-05-07T08:18:04;21.10;51.90
43963;DHT22;29622;45.534;9.242;2023-05-07T08:23:05;21.20;52.00
43963;DHT22;29622;45.534;9.242;2023-05-07T08:28:08;21.30;51.70
43963;DHT22;29622;45.534;9.242;2023-05-07T08:33:10;21.50;51.40
43963;DHT22;29622;45.534;9.242;2023-05-07T08:38:11;21.70;51.10
43963;DHT22;29622;45.534;9.242;2023-05-07T08:43:13;22.00;50.70
43963;DHT22;29622;45.534;9.242;2023-05-07T08:48:16;22.10;50.50
43963;DHT22;29622;45.534;9.242;2023-05-07T08:53:21;22.20;50.20
43963;DHT22;29622;45.534;9.242;2023-05-07T08:58:23;22.40;50.20
43963;DHT22;29622;45.534;9.242;2023-05-07T09:03:24;22.60;49.90
43963;DHT22;29622;45.534;9.242;2023-05-07T09:08:28;22.70;49.60
43963;DHT22;29622;45.534;9.242;2023-05-07T09:13:33;22.80;49.50
43963;DHT22;29622;45.534;9.242;2023-05-07T09:18:43;22.90;49.30
43963;DHT22;29622;45.534;9.242;2023-05-07T09:23:45;22.90;49.00
43963;DHT22;29622;45.534;9.242;2023-05-07T09:28:47;22.90;48.90
43963;DHT22;29622;45.534;9.242;2023-05-07T09:33:48;23.00;49.00
43963;DHT22;29622;45.534;9.242;2023-05-07T09:38:49;23.00;49.10
43963;DHT22;29622;45.534;9.242;2023-05-07T09:43:55;23.00;49.70
43963;DHT22;29622;45.534;9.242;2023-05-07T09:49:01;23.00;49.20
43963;DHT22;29622;45.534;9.242;2023-05-07T09:54:04;23.10;49.10
43963;DHT22;29622;45.534;9.242;2023-05-07T09:59:08;23.20;48.70
43963;DHT22;29622;45.534;9.242;2023-05-07T10:04:11;23.30;48.60
43963;DHT22;29622;45.534;9.242;2023-05-07T10:09:13;23.30;48.30
43963;DHT22;29622;45.534;9.242;2023-05-07T10:14:16;23.30;48.40
43963;DHT22;29622;45.534;9.242;2023-05-07T10:19:19;23.30;48.30
43963;DHT22;29622;45.534;9.242;2023-05-07T10:24:29;23.30;48.40
43963;DHT22;29622;45.534;9.242;2023-05-07T10:34:44;23.40;48.50
43963;DHT22;29622;45.534;9.242;2023-05-07T10:39:46;23.50;48.30
43963;DHT22;29622;45.534;9.242;2023-05-07T10:44:48;23.60;48.20
43963;DHT22;29622;45.534;9.242;2023-05-07T11:05:34;24.00;47.90
43963;DHT22;29622;45.534;9.242;2023-05-07T11:10:48;24.10;47.90
43963;DHT22;29622;45.534;9.242;2023-05-07T11:15:56;24.30;47.70
43963;DHT22;29622;45.534;9.242;2023-05-07T11:21:05;24.40;47.30
43963;DHT22;29622;45.534;9.242;2023-05-07T11:26:15;24.40;47.20
43963;DHT22;29622;45.534;9.242;2023-05-07T11:31:22;24.50;47.10
43963;DHT22;29622;45.534;9.242;2023-05-07T11:36:25;24.50;46.90
43963;DHT22;29622;45.534;9.242;2023-05-07T11:41:36;24.70;46.90
43963;DHT22;29622;45.534;9.242;2023-05-07T11:46:37;24.80;46.70
43963;DHT22;29622;45.534;9.242;2023-05-07T11:51:43;24.90;46.60
43963;DHT22;29622;45.534;9.242;2023-05-07T11:56:47;25.20;46.00
43963;DHT22;29622;45.534;9.242;2023-05-07T12:01:48;25.20;46.40
43963;DHT22;29622;45.534;9.242;2023-05-07T12:06:53;25.40;46.10
43963;DHT22;29622;45.534;9.242;2023-05-07T12:11:56;25.50;45.70
43963;DHT22;29622;45.534;9.242;2023-05-07T12:16:57;25.60;45.60
43963;DHT22;29622;45.534;9.242;2023-05-07T12:21:58;25.70;45.20
43963;DHT22;29622;45.534;9.242;2023-05-07T12:27:00;25.70;45.00
43963;DHT22;29622;45.534;9.242;2023-05-07T12:32:01;25.70;44.80
43963;DHT22;29622;45.534;9.242;2023-05-07T12:37:02;25.90;44.60
43963;DHT22;29622;45.534;9.242;2023-05-07T12:42:04;25.90;44.40
43963;DHT22;29622;45.534;9.242;2023-05-07T12:47:05;26.00;44.30
43963;DHT22;29622;45.534;9.242;2023-05-07T12:52:06;26.10;43.90
43963;DHT22;29622;45.534;9.242;2023-05-07T12:57:12;26.10;43.50
43963;DHT22;29622;45.534;9.242;2023-05-07T13:02:41;26.20;43.20
43963;DHT22;29622;45.534;9.242;2023-05-07T13:07:56;26.30;43.00
43963;DHT22;29622;45.534;9.242;2023-05-07T13:12:57;26.40;42.70
43963;DHT22;29622;45.534;9.242;2023-05-07T13:17:58;26.50;42.50
43963;DHT22;29622;45.534;9.242;2023-05-07T13:22:59;26.70;41.90
43963;DHT22;29622;45.534;9.242;2023-05-07T13:28:02;26.80;41.50
43963;DHT22;29622;45.534;9.242;2023-05-07T13:33:03;26.80;41.20
43963;DHT22;29622;45.534;9.242;2023-05-07T13:38:04;26.90;40.90
43963;DHT22;29622;45.534;9.242;2023-05-07T13:43:05;26.90;40.80
43963;DHT22;29622;45.534;9.242;2023-05-07T13:48:06;26.90;40.60
43963;DHT22;29622;45.534;9.242;2023-05-07T13:53:07;27.00;40.50
43963;DHT22;29622;45.534;9.242;2023-05-07T13:58:08;27.00;40.20
43963;DHT22;29622;45.534;9.242;2023-05-07T14:03:10;27.00;39.90
43963;DHT22;29622;45.534;9.242;2023-05-07T14:08:11;27.10;39.80
43963;DHT22;29622;45.534;9.242;2023-05-07T14:13:14;27.20;39.60
43963;DHT22;29622;45.534;9.242;2023-05-07T14:18:15;27.40;39.60
43963;DHT22;29622;45.534;9.242;2023-05-07T14:23:16;27.40;39.40
43963;DHT22;29622;45.534;9.242;2023-05-07T14:28:18;27.40;39.40
43963;DHT22;29622;45.534;9.242;2023-05-07T14:33:19;27.40;39.40
43963;DHT22;29622;45.534;9.242;2023-05-07T14:38:19;27.30;39.20
43963;DHT22;29622;45.534;9.242;2023-05-07T14:43:20;27.30;38.90
43963;DHT22;29622;45.534;9.242;2023-05-07T14:48:24;27.20;38.70
43963;DHT22;29622;45.534;9.242;2023-05-07T14:53:24;27.10;38.60
43963;DHT22;29622;45.534;9.242;2023-05-07T14:58:25;27.10;38.40
43963;DHT22;29622;45.534;9.242;2023-05-07T15:03:26;27.20;38.30
43963;DHT22;29622;45.534;9.242;2023-05-07T15:08:27;27.30;38.10
43963;DHT22;29622;45.534;9.242;2023-05-07T15:13:28;27.20;37.90
43963;DHT22;29622;45.534;9.242;2023-05-07T15:18:29;27.10;37.90
43963;DHT22;29622;45.534;9.242;2023-05-07T15:23:30;27.10;37.80
43963;DHT22;29622;45.534;9.242;2023-05-07T15:28:31;27.00;37.80
43963;DHT22;29622;45.534;9.242;2023-05-07T15:33:33;27.00;37.70
43963;DHT22;29622;45.534;9.242;2023-05-07T15:38:34;27.00;37.60
43963;DHT22;29622;45.534;9.242;2023-05-07T15:43:44;26.90;37.60
43963;DHT22;29622;45.534;9.242;2023-05-07T15:48:46;26.90;37.80
43963;DHT22;29622;45.534;9.242;2023-05-07T15:53:47;26.90;37.80
43963;DHT22;29622;45.534;9.242;2023-05-07T15:58:47;27.00;37.90
43963;DHT22;29622;45.534;9.242;2023-05-07T16:03:49;27.10;37.90
43963;DHT22;29622;45.534;9.242;2023-05-07T16:08:49;27.20;37.80
43963;DHT22;29622;45.534;9.242;2023-05-07T16:13:50;27.40;37.80
43963;DHT22;29622;45.534;9.242;2023-05-07T16:18:51;27.50;37.90
43963;DHT22;29622;45.534;9.242;2023-05-07T16:23:55;27.60;37.90
43963;DHT22;29622;45.534;9.242;2023-05-07T16:28:56;27.60;37.60
43963;DHT22;29622;45.534;9.242;2023-05-07T16:33:57;27.50;37.50
43963;DHT22;29622;45.534;9.242;2023-05-07T16:38:57;27.30;37.30
43963;DHT22;29622;45.534;9.242;2023-05-07T16:43:58;27.20;37.50
43963;DHT22;29622;45.534;9.242;2023-05-07T16:48:59;27.10;37.60
43963;DHT22;29622;45.534;9.242;2023-05-07T16:54:00;26.90;37.70
43963;DHT22;29622;45.534;9.242;2023-05-07T16:59:00;26.70;37.80
43963;DHT22;29622;45.534;9.242;2023-05-07T17:04:01;26.60;38.10
43963;DHT22;29622;45.534;9.242;2023-05-07T17:09:02;26.40;38.30
43963;DHT22;29622;45.534;9.242;2023-05-07T17:14:02;26.40;38.60
43963;DHT22;29622;45.534;9.242;2023-05-07T17:19:03;26.30;38.70
43963;DHT22;29622;45.534;9.242;2023-05-07T17:24:04;26.20;38.70
43963;DHT22;29622;45.534;9.242;2023-05-07T17:29:05;26.20;38.80
43963;DHT22;29622;45.534;9.242;2023-05-07T17:34:06;26.10;38.80
43963;DHT22;29622;45.534;9.242;2023-05-07T17:39:10;26.10;38.90
43963;DHT22;29622;45.534;9.242;2023-05-07T17:44:11;26.00;38.90
43963;DHT22;29622;45.534;9.242;2023-05-07T17:49:14;26.00;38.90
43963;DHT22;29622;45.534;9.242;2023-05-07T17:54:16;25.90;38.90
43963;DHT22;29622;45.534;9.242;2023-05-07T17:59:17;25.80;39.00
43963;DHT22;29622;45.534;9.242;2023-05-07T18:04:18;25.70;39.60
43963;DHT22;29622;45.534;9.242;2023-05-07T18:09:21;25.70;39.20
43963;DHT22;29622;45.534;9.242;2023-05-07T18:14:21;25.70;39.20
43963;DHT22;29622;45.534;9.242;2023-05-07T18:19:25;25.60;39.20
43963;DHT22;29622;45.534;9.242;2023-05-07T18:24:26;25.60;39.30
43963;DHT22;29622;45.534;9.242;2023-05-07T18:29:27;25.50;39.40
43963;DHT22;29622;45.534;9.242;2023-05-07T18:34:28;25.50;39.40
43963;DHT22;29622;45.534;9.242;2023-05-07T18:39:29;25.50;39.40
43963;DHT22;29622;45.534;9.242;2023-05-07T18:44:30;25.50;39.50
43963;DHT22;29622;45.534;9.242;2023-05-07T18:49:35;25.50;39.50
43963;DHT22;29622;45.534;9.242;2023-05-07T18:54:35;25.50;39.40
43963;DHT22;29622;45.534;9.242;2023-05-07T18:59:36;25.40;39.00
43963;DHT22;29622;45.534;9.242;2023-05-07T19:04:37;25.40;38.40
43963;DHT22;29622;45.534;9.242;2023-05-07T19:09:38;25.20;37.80
43963;DHT22;29622;45.534;9.242;2023-05-07T19:14:39;25.20;37.40
43963;DHT22;29622;45.534;9.242;2023-05-07T19:19:42;25.00;37.20
43963;DHT22;29622;45.534;9.242;2023-05-07T19:24:57;24.90;37.00
43963;DHT22;29622;45.534;9.242;2023-05-07T19:29:58;24.80;36.40
43963;DHT22;29622;45.534;9.242;2023-05-07T19:35:03;24.80;36.50
43963;DHT22;29622;45.534;9.242;2023-05-07T19:40:05;24.60;36.30
43963;DHT22;29622;45.534;9.242;2023-05-07T19:45:06;24.60;36.30
43963;DHT22;29622;45.534;9.242;2023-05-07T19:50:08;24.50;36.30
43963;DHT22;29622;45.534;9.242;2023-05-07T19:55:09;24.50;36.40
43963;DHT22;29622;45.534;9.242;2023-05-07T20:00:10;24.40;36.40
43963;DHT22;29622;45.534;9.242;2023-05-07T20:05:14;24.40;36.50
43963;DHT22;29622;45.534;9.242;2023-05-07T20:10:14;24.30;36.60
43963;DHT22;29622;45.534;9.242;2023-05-07T20:15:15;24.40;36.70
43963;DHT22;29622;45.534;9.242;2023-05-07T20:20:16;24.50;36.80
43963;DHT22;29622;45.534;9.242;2023-05-07T20:25:16;24.60;36.90
43963;DHT22;29622;45.534;9.242;2023-05-07T20:30:17;24.50;37.20
43963;DHT22;29622;45.534;9.242;2023-05-07T20:35:19;24.50;37.60
43963;DHT22;29622;45.534;9.242;2023-05-07T20:40:20;24.40;38.20
43963;DHT22;29622;45.534;9.242;2023-05-07T20:45:21;24.30;38.90
43963;DHT22;29622;45.534;9.242;2023-05-07T20:50:22;24.10;39.40
43963;DHT22;29622;45.534;9.242;2023-05-07T20:55:24;23.90;40.50
43963;DHT22;29622;45.534;9.242;2023-05-07T21:00:24;23.80;40.50
43963;DHT22;29622;45.534;9.242;2023-05-07T21:05:26;23.70;40.90
43963;DHT22;29622;45.534;9.242;2023-05-07T21:10:26;23.70;41.30
43963;DHT22;29622;45.534;9.242;2023-05-07T21:15:27;23.90;41.40
43963;DHT22;29622;45.534;9.242;2023-05-07T21:20:28;24.10;41.50
43963;DHT22;29622;45.534;9.242;2023-05-07T21:25:29;24.30;41.50
43963;DHT22;29622;45.534;9.242;2023-05-07T21:30:30;24.20;41.60
43963;DHT22;29622;45.534;9.242;2023-05-07T21:35:30;24.10;41.80
43963;DHT22;29622;45.534;9.242;2023-05-07T21:40:31;24.10;42.00
43963;DHT22;29622;45.534;9.242;2023-05-07T21:45:32;24.00;42.20
43963;DHT22;29622;45.534;9.242;2023-05-07T21:50:32;23.90;42.30
43963;DHT22;29622;45.534;9.242;2023-05-07T21:55:33;24.00;42.40
43963;DHT22;29622;45.534;9.242;2023-05-07T22:00:33;23.90;42.40
43963;DHT22;29622;45.534;9.242;2023-05-07T22:05:34;23.80;42.50
43963;DHT22;29622;45.534;9.242;2023-05-07T22:10:36;23.90;42.70
43963;DHT22;29622;45.534;9.242;2023-05-07T22:15:36;24.00;42.50
43963;DHT22;29622;45.534;9.242;2023-05-07T22:20:37;24.10;42.30
43963;DHT22;29622;45.534;9.242;2023-05-07T22:25:38;24.10;42.40
43963;DHT22;29622;45.534;9.242;2023-05-07T22:30:38;24.00;42.40
43963;DHT22;29622;45.534;9.242;2023-05-07T22:35:39;24.00;42.40
43963;DHT22;29622;45.534;9.242;2023-05-07T22:40:40;23.90;42.50
43963;DHT22;29622;45.534;9.242;2023-05-07T22:45:41;23.80;42.70
43963;DHT22;29622;45.534;9.242;2023-05-07T22:50:41;23.80;42.90
43963;DHT22;29622;45.534;9.242;2023-05-07T22:55:42;23.60;43.10
43963;DHT22;29622;45.534;9.242;2023-05-07T23:00:43;23.50;43.30
43963;DHT22;29622;45.534;9.242;2023-05-07T23:05:43;23.50;43.50
43963;DHT22;29622;45.534;9.242;2023-05-07T23:10:44;23.50;43.60
43963;DHT22;29622;45.534;9.242;2023-05-07T23:15:45;23.40;43.70
43963;DHT22;29622;45.534;9.242;2023-05-07T23:20:45;23.20;43.90
43963;DHT22;29622;45.534;9.242;2023-05-07T23:25:46;23.10;44.20
43963;DHT22;29622;45.534;9.242;2023-05-07T23:30:46;23.00;44.40
43963;DHT22;29622;45.534;9.242;2023-05-07T23:35:47;23.00;44.50
43963;DHT22;29622;45.534;9.242;2023-05-07T23:40:48;23.00;44.80
43963;DHT22;29622;45.534;9.242;2023-05-07T23:45:48;23.00;44.80
43963;DHT22;29622;45.534;9.242;2023-05-07T23:50:49;23.10;44.70
43963;DHT22;29622;45.534;9.242;2023-05-07T23:55:50;22.90;44.70
